Terminal Aerodrome Forecast
Issued by NWS

Home | Current Version | Previous Version | Text Only | Print | Product List | Glossary On
Versions: 1 2 3 4 5 6 7 8 9 10 11 12 13
000
FTAK31 PANC 250530
TAFADL
TAF
PADL 250530Z 2506/2606 07011KT P6SM SCT060 BKN120
     FM250900 06013KT P6SM SCT060 BKN180
     FM251400 05015G23KT P6SM VCSH OVC060 WS020/09035KT
     FM251800 05015G25KT P6SM -RA OVC045 WS020/09035KT=

USA.gov is the U.S. government's official web portal to all federal, state and local government web resources and services.